createdAt,value
2022-09-28T00:02:28.108Z,100.00
2022-09-28T00:05:31.791Z,100.00
2022-09-28T00:08:36.831Z,100.00
2022-09-28T00:11:40.258Z,100.00
2022-09-28T00:14:44.856Z,100.00
2022-09-28T00:17:48.263Z,100.00
2022-09-28T00:21:01.150Z,100.00
2022-09-28T00:24:17.158Z,100.00
2022-09-28T00:27:20.369Z,100.00
2022-09-28T00:30:23.866Z,100.00
2022-09-28T00:33:27.295Z,100.00
2022-09-28T00:36:32.052Z,100.00
2022-09-28T00:39:38.326Z,100.00
2022-09-28T00:42:42.880Z,100.00
2022-09-28T00:45:47.154Z,100.00
2022-09-28T00:48:56.045Z,100.00
2022-09-28T00:51:59.801Z,100.00
2022-09-28T00:55:08.796Z,100.00
2022-09-28T00:58:17.034Z,100.00
2022-09-28T01:01:20.335Z,100.00
2022-09-28T01:04:29.190Z,100.00
2022-09-28T01:07:35.023Z,100.00
2022-09-28T01:10:40.617Z,100.00
2022-09-28T01:13:45.082Z,100.00
2022-09-28T01:16:58.832Z,100.00
2022-09-28T01:20:28.168Z,100.00
2022-09-28T01:23:55.039Z,100.00
2022-09-28T01:27:06.937Z,100.00
2022-09-28T01:30:13.010Z,100.00
2022-09-28T01:33:23.648Z,100.00
2022-09-28T01:36:31.091Z,100.00
2022-09-28T01:39:38.258Z,100.00
2022-09-28T01:42:45.959Z,100.00
2022-09-28T01:45:52.584Z,100.00
2022-09-28T01:48:59.032Z,100.00
2022-09-28T01:52:08.009Z,100.00
2022-09-28T01:55:15.101Z,100.00
2022-09-28T01:58:25.877Z,100.00
2022-09-28T02:01:34.517Z,100.00
2022-09-28T02:04:42.151Z,100.00
2022-09-28T02:07:51.658Z,100.00
2022-09-28T02:11:01.117Z,100.00
2022-09-28T02:14:07.791Z,100.00
2022-09-28T02:17:11.331Z,100.00
2022-09-28T02:20:15.055Z,100.00
2022-09-28T02:23:20.066Z,100.00
2022-09-28T02:26:28.518Z,100.00
2022-09-28T02:29:33.359Z,100.00
2022-09-28T02:32:40.951Z,100.00
2022-09-28T02:35:44.563Z,100.00
2022-09-28T02:38:47.840Z,100.00
2022-09-28T02:42:01.162Z,100.00
2022-09-28T02:45:21.925Z,100.00
2022-09-28T02:48:44.096Z,100.00
2022-09-28T02:52:03.534Z,100.00
2022-09-28T02:55:26.833Z,100.00
2022-09-28T02:58:41.271Z,100.00
2022-09-28T03:01:53.920Z,100.00
2022-09-28T03:05:13.300Z,100.00
2022-09-28T03:08:24.728Z,100.00
2022-09-28T03:11:34.115Z,100.00
2022-09-28T03:14:38.444Z,100.00
2022-09-28T03:17:42.961Z,100.00
2022-09-28T03:20:47.511Z,100.00
2022-09-28T03:23:50.642Z,100.00
2022-09-28T03:26:53.818Z,100.00
2022-09-28T03:29:58.867Z,100.00
2022-09-28T03:35:08.026Z,100.00
2022-09-28T03:38:11.137Z,100.00
2022-09-28T03:41:15.041Z,100.00
2022-09-28T03:44:19.530Z,100.00
2022-09-28T03:47:24.004Z,100.00
2022-09-28T03:50:28.848Z,100.00
2022-09-28T03:53:32.274Z,100.00
2022-09-28T03:56:36.889Z,100.00
2022-09-28T03:59:40.077Z,100.00
2022-09-28T04:02:43.410Z,100.00
2022-09-28T04:05:53.110Z,100.00
2022-09-28T04:08:56.483Z,98.09
2022-09-28T04:12:04.175Z,84.67
2022-09-28T04:15:09.554Z,84.52
2022-09-28T04:18:13.597Z,81.20
2022-09-28T04:21:53.380Z,78.08
2022-09-28T04:24:56.704Z,71.78
2022-09-28T04:28:17.285Z,76.14
2022-09-28T04:31:23.489Z,70.24
2022-09-28T04:34:29.794Z,8.68
2022-09-28T04:37:36.364Z,7.97
2022-09-28T04:40:39.410Z,13.17
2022-09-28T04:43:42.619Z,0.00
2022-09-28T04:46:46.039Z,1.82
2022-09-28T04:50:08.134Z,3.77
2022-09-28T04:53:40.062Z,0.00
2022-09-28T04:56:43.209Z,0.00
2022-09-28T04:59:46.479Z,0.00
2022-09-28T05:02:49.616Z,0.00
2022-09-28T05:06:14.920Z,0.00
2022-09-28T05:09:23.537Z,0.00
2022-09-28T05:12:28.442Z,0.00
2022-09-28T05:15:31.561Z,0.00
2022-09-28T05:18:34.983Z,0.00
2022-09-28T05:21:40.688Z,0.00
2022-09-28T05:24:46.421Z,0.00
2022-09-28T05:27:50.162Z,0.00
2022-09-28T05:31:06.985Z,0.00
2022-09-28T05:34:45.748Z,0.00
2022-09-28T05:37:55.954Z,0.00
2022-09-28T05:41:04.392Z,0.00
2022-09-28T05:44:09.517Z,0.00
2022-09-28T05:47:12.840Z,0.00
2022-09-28T05:50:16.473Z,0.00
2022-09-28T05:53:19.590Z,0.00
2022-09-28T05:56:24.358Z,0.00
2022-09-28T05:59:30.228Z,0.00
2022-09-28T06:02:33.388Z,0.00
2022-09-28T06:05:38.310Z,0.00
2022-09-28T06:08:43.648Z,0.00
2022-09-28T06:12:05.562Z,0.00
2022-09-28T06:15:17.442Z,0.00
2022-09-28T06:18:22.364Z,0.00
2022-09-28T06:21:44.037Z,0.00
2022-09-28T06:24:47.453Z,0.00
2022-09-28T06:27:59.920Z,0.00
2022-09-28T06:31:03.325Z,0.00
2022-09-28T06:34:07.276Z,0.00
2022-09-28T06:37:10.406Z,0.00
2022-09-28T06:40:13.564Z,0.00
2022-09-28T06:43:23.793Z,0.00
2022-09-28T06:46:45.648Z,0.00
2022-09-28T06:50:13.639Z,0.00
2022-09-28T06:53:40.309Z,0.00
2022-09-28T06:56:54.453Z,0.00
2022-09-28T06:59:59.126Z,0.00
2022-09-28T07:03:03.742Z,15.00
2022-09-28T07:06:26.671Z,17.21
2022-09-28T07:09:50.299Z,43.71
2022-09-28T07:13:44.758Z,95.76
2022-09-28T07:17:09.981Z,100.00
2022-09-28T07:20:18.280Z,100.00
2022-09-28T07:23:23.040Z,100.00
2022-09-28T07:26:45.415Z,100.00
2022-09-28T07:30:09.613Z,100.00
2022-09-28T07:33:37.266Z,100.00
2022-09-28T07:36:59.606Z,100.00
2022-09-28T07:40:29.583Z,100.00
2022-09-28T07:43:33.707Z,100.00
2022-09-28T07:46:37.281Z,100.00
2022-09-28T07:49:46.908Z,100.00
2022-09-28T07:53:14.258Z,100.00
2022-09-28T07:56:27.713Z,100.00
2022-09-28T07:59:36.306Z,100.00
2022-09-28T08:03:04.304Z,100.00
2022-09-28T08:06:12.615Z,100.00
2022-09-28T08:09:16.284Z,100.00
2022-09-28T08:12:40.687Z,100.00
2022-09-28T08:16:02.944Z,100.00
2022-09-28T08:19:11.901Z,100.00
2022-09-28T08:22:17.745Z,100.00
2022-09-28T08:25:21.106Z,100.00
2022-09-28T08:28:25.854Z,100.00
2022-09-28T08:31:33.043Z,100.00
2022-09-28T08:34:47.375Z,100.00
2022-09-28T08:38:10.894Z,100.00
2022-09-28T08:41:41.002Z,100.00
2022-09-28T08:45:09.081Z,100.00
2022-09-28T08:49:13.413Z,100.00
2022-09-28T08:52:41.515Z,100.00
2022-09-28T08:55:53.723Z,100.00
2022-09-28T08:59:01.358Z,100.00
2022-09-28T09:02:05.581Z,100.00
2022-09-28T09:05:14.818Z,100.00
2022-09-28T09:09:04.303Z,100.00
2022-09-28T09:12:19.156Z,100.00
2022-09-28T09:15:39.404Z,100.00
2022-09-28T09:19:00.107Z,100.00
2022-09-28T09:22:18.160Z,100.00
2022-09-28T09:25:26.835Z,100.00
2022-09-28T09:29:02.388Z,100.00
2022-09-28T09:35:30.995Z,100.00
2022-09-28T09:39:08.471Z,100.00
2022-09-28T09:42:45.301Z,100.00
2022-09-28T09:46:16.697Z,100.00
2022-09-28T09:49:41.278Z,100.00
2022-09-28T09:52:57.242Z,100.00
2022-09-28T09:56:15.248Z,100.00
2022-09-28T09:59:51.380Z,100.00
2022-09-28T10:03:23.246Z,100.00
2022-09-28T10:06:33.879Z,100.00
2022-09-28T10:09:43.312Z,100.00
2022-09-28T10:12:57.880Z,100.00
2022-09-28T10:16:01.351Z,100.00
2022-09-28T10:19:16.174Z,100.00
2022-09-28T10:22:57.253Z,100.00
2022-09-28T10:26:06.475Z,100.00
2022-09-28T10:29:15.813Z,100.00
2022-09-28T10:32:22.386Z,100.00
2022-09-28T10:35:30.648Z,100.00
2022-09-28T10:38:36.920Z,100.00
2022-09-28T10:41:54.338Z,100.00
2022-09-28T10:45:17.464Z,100.00
2022-09-28T10:48:23.213Z,100.00
2022-09-28T10:51:41.775Z,100.00
2022-09-28T10:54:54.396Z,100.00
2022-09-28T10:58:01.148Z,100.00
2022-09-28T11:01:19.012Z,100.00
2022-09-28T11:04:26.887Z,100.00
2022-09-28T11:07:33.400Z,100.00
2022-09-28T11:10:37.524Z,100.00
2022-09-28T11:14:02.657Z,100.00
2022-09-28T11:17:18.326Z,100.00
2022-09-28T11:20:35.933Z,100.00
2022-09-28T11:23:42.146Z,100.00
2022-09-28T11:26:57.435Z,100.00
2022-09-28T11:30:05.817Z,100.00
2022-09-28T11:33:20.664Z,100.00
2022-09-28T11:37:11.538Z,100.00
2022-09-28T11:40:27.670Z,100.00
2022-09-28T11:43:49.373Z,100.00
2022-09-28T11:47:05.963Z,100.00
2022-09-28T11:50:23.828Z,100.00
2022-09-28T11:53:32.578Z,100.00
2022-09-28T11:56:41.101Z,100.00
2022-09-28T11:59:55.983Z,100.00
2022-09-28T12:03:06.809Z,100.00
2022-09-28T12:06:16.649Z,100.00
2022-09-28T12:09:26.072Z,100.00
2022-09-28T12:12:50.661Z,100.00
2022-09-28T12:16:27.280Z,100.00
2022-09-28T12:19:31.898Z,100.00
2022-09-28T12:22:40.455Z,100.00
2022-09-28T12:25:48.199Z,100.00
2022-09-28T12:28:56.954Z,100.00
2022-09-28T12:32:11.605Z,100.00
2022-09-28T12:35:20.915Z,100.00
2022-09-28T12:38:48.253Z,100.00
2022-09-28T12:42:18.443Z,100.00
2022-09-28T12:45:38.869Z,100.00
2022-09-28T12:50:01.874Z,100.00
2022-09-28T12:52:42.910Z,100.00
2022-09-28T12:55:56.551Z,100.00
2022-09-28T12:59:12.711Z,100.00
2022-09-28T13:02:43.290Z,100.00
2022-09-28T13:06:16.377Z,100.00
2022-09-28T13:09:23.916Z,100.00
2022-09-28T13:12:37.931Z,100.00
2022-09-28T13:15:52.987Z,100.00
2022-09-28T13:19:04.928Z,100.00
2022-09-28T13:22:23.436Z,100.00
2022-09-28T13:25:34.145Z,100.00
2022-09-28T13:28:38.710Z,100.00
2022-09-28T13:31:50.572Z,100.00
2022-09-28T13:34:54.763Z,100.00
2022-09-28T13:38:44.084Z,100.00
2022-09-28T13:41:50.604Z,100.00
2022-09-28T13:45:09.474Z,100.00
2022-09-28T13:48:16.953Z,100.00
2022-09-28T13:51:32.912Z,100.00
2022-09-28T13:54:57.124Z,100.00
2022-09-28T13:58:05.276Z,100.00
2022-09-28T14:01:12.480Z,100.00
2022-09-28T14:04:19.476Z,100.00
2022-09-28T14:10:51.700Z,100.00
2022-09-28T14:14:07.221Z,100.00
2022-09-28T14:17:53.308Z,100.00
2022-09-28T14:21:24.062Z,100.00
2022-09-28T14:24:36.831Z,100.00
2022-09-28T14:28:17.573Z,100.00
2022-09-28T14:31:27.542Z,100.00
2022-09-28T14:34:36.314Z,100.00
2022-09-28T14:38:00.731Z,100.00
2022-09-28T14:41:10.442Z,100.00
2022-09-28T14:44:16.290Z,100.00
2022-09-28T14:47:35.715Z,100.00
2022-09-28T14:50:38.937Z,100.00
2022-09-28T14:53:43.074Z,100.00
2022-09-28T14:56:52.867Z,100.00
2022-09-28T15:00:00.107Z,100.00
2022-09-28T15:03:12.016Z,100.00
2022-09-28T15:06:16.865Z,100.00
2022-09-28T15:09:29.503Z,100.00
2022-09-28T15:12:33.166Z,100.00
2022-09-28T15:15:41.506Z,100.00
2022-09-28T15:19:18.341Z,100.00
2022-09-28T15:22:22.126Z,100.00
2022-09-28T15:25:26.837Z,100.00
2022-09-28T15:28:30.382Z,100.00
2022-09-28T15:35:20.658Z,100.00
2022-09-28T15:38:25.174Z,100.00
2022-09-28T15:41:29.458Z,100.00
2022-09-28T15:44:35.253Z,100.00
2022-09-28T15:47:44.943Z,100.00
2022-09-28T15:51:01.142Z,100.00
2022-09-28T15:54:11.120Z,100.00
2022-09-28T15:57:33.288Z,100.00
2022-09-28T16:00:36.885Z,100.00
2022-09-28T16:03:40.199Z,100.00
2022-09-28T16:06:46.226Z,100.00
2022-09-28T16:09:58.410Z,100.00
2022-09-28T16:13:23.946Z,100.00
2022-09-28T16:16:30.374Z,100.00
2022-09-28T16:19:39.319Z,100.00
2022-09-28T16:22:44.883Z,100.00
2022-09-28T16:25:52.682Z,100.00
2022-09-28T16:28:55.866Z,100.00
2022-09-28T16:32:35.071Z,100.00
2022-09-28T16:35:51.365Z,100.00
2022-09-28T16:38:55.887Z,100.00
2022-09-28T16:42:02.816Z,100.00
2022-09-28T16:45:07.721Z,100.00
2022-09-28T16:48:15.887Z,100.00
2022-09-28T16:51:19.881Z,100.00
2022-09-28T16:54:43.020Z,100.00
2022-09-28T16:57:50.190Z,100.00
2022-09-28T17:00:54.051Z,100.00
2022-09-28T17:03:57.283Z,100.00
2022-09-28T17:07:00.764Z,100.00
2022-09-28T17:10:16.012Z,100.00
2022-09-28T17:13:19.322Z,100.00
2022-09-28T17:16:43.570Z,100.00
2022-09-28T17:19:47.558Z,100.00
2022-09-28T17:22:51.174Z,100.00
2022-09-28T17:25:56.576Z,100.00
2022-09-28T17:29:01.586Z,100.00
2022-09-28T17:32:15.133Z,100.00
2022-09-28T17:35:25.319Z,100.00
2022-09-28T17:38:29.248Z,100.00
2022-09-28T17:41:34.291Z,100.00
2022-09-28T17:44:37.429Z,100.00
2022-09-28T17:47:40.595Z,100.00
2022-09-28T17:50:46.527Z,100.00
2022-09-28T17:53:49.826Z,100.00
2022-09-28T17:56:54.546Z,100.00
2022-09-28T17:59:58.325Z,100.00
2022-09-28T18:03:01.747Z,100.00
2022-09-28T18:06:07.587Z,100.00
2022-09-28T18:09:15.468Z,100.00
2022-09-28T18:12:20.662Z,100.00
2022-09-28T18:15:24.030Z,100.00
2022-09-28T18:18:27.220Z,100.00
2022-09-28T18:21:32.574Z,100.00
2022-09-28T18:24:35.664Z,100.00
2022-09-28T18:27:40.195Z,100.00
2022-09-28T18:30:45.631Z,100.00
2022-09-28T18:33:49.681Z,100.00
2022-09-28T18:36:52.788Z,100.00
2022-09-28T18:39:55.946Z,100.00
2022-09-28T18:43:00.416Z,100.00
2022-09-28T18:46:07.097Z,100.00
2022-09-28T18:49:10.389Z,100.00
2022-09-28T18:52:13.538Z,100.00
2022-09-28T18:55:16.804Z,100.00
2022-09-28T18:58:21.293Z,100.00
2022-09-28T19:01:29.951Z,100.00
2022-09-28T19:04:33.769Z,100.00
2022-09-28T19:07:36.980Z,100.00
2022-09-28T19:10:40.112Z,100.00
2022-09-28T19:13:44.972Z,100.00
2022-09-28T19:16:48.249Z,100.00
2022-09-28T19:19:52.039Z,100.00
2022-09-28T19:22:55.338Z,100.00
2022-09-28T19:26:01.916Z,100.00
2022-09-28T19:29:06.521Z,100.00
2022-09-28T19:32:12.115Z,100.00
2022-09-28T19:35:15.340Z,100.00
2022-09-28T19:38:18.554Z,100.00
2022-09-28T19:41:44.177Z,100.00
2022-09-28T19:44:49.338Z,100.00
2022-09-28T19:47:56.144Z,100.00
2022-09-28T19:51:03.709Z,100.00
2022-09-28T19:54:07.478Z,100.00
2022-09-28T19:57:11.592Z,100.00
2022-09-28T20:00:16.793Z,100.00
2022-09-28T20:03:19.941Z,100.00
2022-09-28T20:06:23.176Z,100.00
2022-09-28T20:09:26.332Z,100.00
2022-09-28T20:12:29.951Z,100.00
2022-09-28T20:15:36.764Z,100.00
2022-09-28T20:18:43.622Z,100.00
2022-09-28T20:21:48.087Z,100.00
2022-09-28T20:24:51.491Z,100.00
2022-09-28T20:27:55.095Z,100.00
2022-09-28T20:31:04.065Z,100.00
2022-09-28T20:34:07.361Z,100.00
2022-09-28T20:37:12.412Z,100.00
2022-09-28T20:40:15.843Z,100.00
2022-09-28T20:43:19.004Z,100.00
2022-09-28T20:46:24.460Z,100.00
2022-09-28T20:49:28.118Z,100.00
2022-09-28T20:52:31.275Z,100.00
2022-09-28T20:55:34.669Z,100.00
2022-09-28T20:58:40.249Z,100.00
2022-09-28T21:01:45.307Z,100.00
2022-09-28T21:04:48.576Z,100.00
2022-09-28T21:07:51.736Z,100.00
2022-09-28T21:10:55.210Z,100.00
2022-09-28T21:14:01.784Z,100.00
2022-09-28T21:17:06.629Z,100.00
2022-09-28T21:20:10.306Z,100.00
2022-09-28T21:23:13.760Z,100.00
2022-09-28T21:26:24.749Z,100.00
2022-09-28T21:29:28.701Z,100.00
2022-09-28T21:35:19.191Z,100.00
2022-09-28T21:38:22.419Z,100.00
2022-09-28T21:41:26.086Z,100.00
2022-09-28T21:44:29.454Z,100.00
2022-09-28T21:47:33.143Z,100.00
2022-09-28T21:50:37.737Z,100.00
2022-09-28T21:53:42.857Z,100.00
2022-09-28T21:56:46.259Z,100.00
2022-09-28T21:59:49.509Z,100.00
2022-09-28T22:02:52.973Z,100.00
2022-09-28T22:05:57.623Z,100.00
2022-09-28T22:09:00.792Z,100.00
2022-09-28T22:12:04.038Z,100.00
2022-09-28T22:15:08.593Z,100.00
2022-09-28T22:18:11.716Z,100.00
2022-09-28T22:21:18.681Z,100.00
2022-09-28T22:24:22.015Z,100.00
2022-09-28T22:27:25.150Z,100.00
2022-09-28T22:30:28.431Z,100.00
2022-09-28T22:33:31.893Z,100.00
2022-09-28T22:36:36.891Z,100.00
2022-09-28T22:39:41.076Z,100.00
2022-09-28T22:42:44.313Z,100.00
2022-09-28T22:45:47.913Z,100.00
2022-09-28T22:48:53.232Z,100.00
2022-09-28T22:51:57.914Z,100.00
2022-09-28T22:55:00.984Z,100.00
2022-09-28T22:58:04.234Z,100.00
2022-09-28T23:01:09.275Z,100.00
2022-09-28T23:04:12.695Z,100.00
2022-09-28T23:07:17.177Z,100.00
2022-09-28T23:10:20.394Z,100.00
2022-09-28T23:13:23.520Z,100.00
2022-09-28T23:16:27.430Z,100.00
2022-09-28T23:19:30.701Z,100.00
2022-09-28T23:22:35.223Z,100.00
2022-09-28T23:25:38.554Z,100.00
2022-09-28T23:28:41.980Z,100.00
2022-09-28T23:31:45.502Z,100.00
2022-09-28T23:34:48.644Z,100.00
2022-09-28T23:37:53.226Z,100.00
2022-09-28T23:40:56.648Z,100.00
2022-09-28T23:44:00.045Z,100.00
2022-09-28T23:47:03.288Z,100.00
2022-09-28T23:50:07.910Z,100.00
2022-09-28T23:53:14.127Z,100.00
2022-09-28T23:56:17.246Z,100.00
2022-09-28T23:59:20.420Z,100.00
